createdAt,value
2022-12-27T00:02:23.549Z,51.97
2022-12-27T00:05:10.170Z,53.97
2022-12-27T00:07:56.534Z,57.45
2022-12-27T00:10:43.300Z,53.15
2022-12-27T00:13:28.915Z,53.55
2022-12-27T00:16:16.901Z,51.33
2022-12-27T00:19:02.988Z,54.53
2022-12-27T00:21:48.410Z,54.53
2022-12-27T00:24:35.685Z,55.80
2022-12-27T00:27:21.379Z,54.05
2022-12-27T00:30:07.483Z,54.58
2022-12-27T00:32:53.274Z,49.78
2022-12-27T00:35:39.354Z,51.05
2022-12-27T00:38:26.964Z,47.67
2022-12-27T00:41:13.429Z,59.53
2022-12-27T00:43:58.774Z,52.42
2022-12-27T00:46:44.597Z,49.63
2022-12-27T00:49:29.995Z,51.20
2022-12-27T00:52:15.663Z,46.25
2022-12-27T00:55:01.179Z,50.97
2022-12-27T00:57:47.010Z,51.80
2022-12-27T01:00:32.639Z,48.53
2022-12-27T01:03:19.366Z,45.05
2022-12-27T01:06:07.554Z,46.50
2022-12-27T01:08:53.145Z,54.20
2022-12-27T01:11:40.983Z,52.47
2022-12-27T01:14:26.618Z,49.63
2022-12-27T01:17:12.264Z,52.60
2022-12-27T01:19:57.912Z,49.53
2022-12-27T01:22:43.995Z,49.90
2022-12-27T01:25:29.558Z,48.38
2022-12-27T01:28:15.248Z,51.15
2022-12-27T01:31:09.672Z,48.10
2022-12-27T01:34:00.526Z,51.40
2022-12-27T01:36:46.179Z,50.65
2022-12-27T01:39:32.293Z,44.60
2022-12-27T01:42:38.484Z,52.25
2022-12-27T01:45:29.475Z,47.15
2022-12-27T01:48:21.015Z,47.90
2022-12-27T01:51:07.421Z,47.67
2022-12-27T01:53:53.661Z,49.22
2022-12-27T01:56:39.725Z,49.67
2022-12-27T01:59:25.815Z,50.20
2022-12-27T02:02:11.735Z,45.92
2022-12-27T02:04:58.576Z,49.30
2022-12-27T02:08:08.186Z,45.17
2022-12-27T02:10:56.145Z,43.47
2022-12-27T02:13:44.542Z,48.15
2022-12-27T02:16:30.230Z,48.15
2022-12-27T02:19:39.978Z,49.70
2022-12-27T02:23:22.245Z,47.95
2022-12-27T02:26:42.899Z,49.08
2022-12-27T02:29:59.604Z,41.13
2022-12-27T02:32:54.984Z,43.65
2022-12-27T02:35:45.621Z,50.00
2022-12-27T02:38:36.073Z,44.63
2022-12-27T02:41:40.326Z,45.97
2022-12-27T02:44:44.579Z,46.42
2022-12-27T02:47:50.343Z,47.70
2022-12-27T02:51:29.155Z,49.28
2022-12-27T02:54:49.680Z,46.45
2022-12-27T02:57:45.986Z,43.97
2022-12-27T03:01:00.961Z,47.38
2022-12-27T03:03:55.763Z,47.08
2022-12-27T03:07:07.679Z,46.13
2022-12-27T03:10:36.624Z,43.90
2022-12-27T03:13:59.456Z,46.35
2022-12-27T03:16:57.877Z,43.58
2022-12-27T03:20:05.689Z,46.03
2022-12-27T03:23:12.429Z,44.50
2022-12-27T03:26:00.918Z,46.22
2022-12-27T03:29:06.635Z,45.05
2022-12-27T03:32:16.591Z,41.80
2022-12-27T03:35:19.733Z,44.83
2022-12-27T03:38:07.116Z,41.72
2022-12-27T03:41:20.097Z,44.25
2022-12-27T03:47:31.342Z,43.47
2022-12-27T03:50:35.289Z,43.40
2022-12-27T03:56:17.228Z,42.30
2022-12-27T03:59:03.265Z,51.08
2022-12-27T04:01:48.812Z,44.03
2022-12-27T04:04:35.109Z,45.97
2022-12-27T04:07:20.359Z,48.25
2022-12-27T04:10:25.872Z,47.53
2022-12-27T04:13:29.882Z,44.83
2022-12-27T04:16:34.071Z,48.13
2022-12-27T04:19:38.225Z,44.42
2022-12-27T04:22:42.344Z,49.20
2022-12-27T04:25:46.429Z,50.67
2022-12-27T04:28:50.496Z,43.30
2022-12-27T04:31:55.141Z,45.38
2022-12-27T04:34:49.402Z,42.60
2022-12-27T04:37:35.265Z,42.45
2022-12-27T04:40:39.285Z,41.08
2022-12-27T04:43:43.462Z,48.10
2022-12-27T04:46:47.545Z,42.28
2022-12-27T04:49:53.439Z,46.03
2022-12-27T04:52:57.459Z,48.10
2022-12-27T04:55:43.088Z,48.65
2022-12-27T04:58:28.966Z,46.20
2022-12-27T05:01:33.619Z,41.58
2022-12-27T05:04:19.044Z,41.75
2022-12-27T05:07:25.687Z,40.75
2022-12-27T05:10:29.897Z,43.78
2022-12-27T05:13:33.985Z,44.22
2022-12-27T05:16:19.882Z,42.72
2022-12-27T05:19:11.440Z,47.45
2022-12-27T05:22:15.439Z,42.53
2022-12-27T05:25:20.525Z,43.70
2022-12-27T05:28:08.718Z,40.25
2022-12-27T05:30:54.576Z,39.70
2022-12-27T05:33:40.182Z,42.72
2022-12-27T05:36:26.961Z,39.10
2022-12-27T05:39:12.908Z,40.75
2022-12-27T05:41:58.557Z,44.97
2022-12-27T05:44:43.994Z,46.92
2022-12-27T05:47:29.721Z,38.10
2022-12-27T05:50:15.405Z,37.67
2022-12-27T05:53:00.916Z,37.13
2022-12-27T05:55:54.767Z,38.50
2022-12-27T06:01:25.756Z,36.35
2022-12-27T06:04:11.323Z,36.17
2022-12-27T06:06:59.262Z,33.30
2022-12-27T06:09:47.764Z,37.85
2022-12-27T06:12:33.435Z,42.13
2022-12-27T06:15:19.258Z,41.45
2022-12-27T06:18:06.664Z,43.92
2022-12-27T06:20:52.942Z,41.15
2022-12-27T06:23:41.019Z,33.97
2022-12-27T06:26:29.058Z,36.22
2022-12-27T06:29:14.507Z,39.28
2022-12-27T06:32:00.551Z,35.17
2022-12-27T06:34:46.345Z,36.45
2022-12-27T06:37:32.071Z,32.10
2022-12-27T06:40:20.843Z,36.58
2022-12-27T06:43:06.466Z,33.92
2022-12-27T06:45:57.208Z,40.22
2022-12-27T06:48:42.597Z,33.60
2022-12-27T06:51:28.194Z,32.50
2022-12-27T06:54:14.099Z,38.33
2022-12-27T06:57:00.719Z,32.47
2022-12-27T06:59:50.984Z,29.70
2022-12-27T07:02:39.973Z,35.28
2022-12-27T07:05:25.568Z,36.45
2022-12-27T07:08:11.164Z,29.58
2022-12-27T07:11:04.811Z,31.70
2022-12-27T07:13:52.585Z,30.98
2022-12-27T07:16:38.640Z,27.58
2022-12-27T07:19:24.049Z,33.55
2022-12-27T07:22:09.618Z,37.20
2022-12-27T07:24:55.304Z,26.10
2022-12-27T07:27:40.860Z,32.80
2022-12-27T07:30:26.890Z,32.92
2022-12-27T07:33:12.727Z,29.08
2022-12-27T07:36:00.291Z,28.77
2022-12-27T07:38:46.038Z,38.25
2022-12-27T07:41:31.896Z,38.80
2022-12-27T07:44:19.752Z,35.80
2022-12-27T07:47:06.751Z,36.45
2022-12-27T07:49:52.275Z,28.70
2022-12-27T07:52:37.891Z,36.00
2022-12-27T07:55:24.787Z,24.10
2022-12-27T07:58:10.352Z,28.90
2022-12-27T08:00:56.440Z,37.05
2022-12-27T08:03:42.532Z,35.60
2022-12-27T08:06:34.960Z,30.95
2022-12-27T08:09:30.901Z,35.05
2022-12-27T08:12:17.013Z,33.97
2022-12-27T08:15:04.157Z,37.88
2022-12-27T08:17:49.478Z,34.15
2022-12-27T08:20:36.110Z,29.40
2022-12-27T08:23:22.103Z,35.22
2022-12-27T08:26:08.694Z,26.00
2022-12-27T08:28:54.288Z,31.55
2022-12-27T08:31:39.802Z,41.40
2022-12-27T08:34:25.566Z,36.97
2022-12-27T08:37:11.118Z,30.80
2022-12-27T08:40:02.496Z,33.80
2022-12-27T08:42:48.702Z,27.25
2022-12-27T08:45:35.495Z,33.67
2022-12-27T08:48:21.188Z,27.20
2022-12-27T08:51:12.946Z,33.63
2022-12-27T08:54:00.611Z,28.02
2022-12-27T08:56:46.207Z,31.33
2022-12-27T08:59:31.747Z,33.90
2022-12-27T09:02:17.298Z,34.15
2022-12-27T09:05:02.520Z,35.05
2022-12-27T09:07:48.370Z,29.17
2022-12-27T09:10:33.952Z,32.78
2022-12-27T09:13:19.474Z,26.50
2022-12-27T09:16:11.032Z,29.10
2022-12-27T09:18:58.825Z,31.63
2022-12-27T09:21:44.425Z,38.40
2022-12-27T09:24:29.835Z,37.60
2022-12-27T09:27:15.573Z,38.55
2022-12-27T09:30:01.169Z,38.83
2022-12-27T09:32:48.033Z,36.78
2022-12-27T09:35:38.472Z,38.20
2022-12-27T09:38:24.846Z,39.53
2022-12-27T09:44:51.680Z,43.00
2022-12-27T09:48:04.240Z,36.58
2022-12-27T09:50:58.072Z,43.17
2022-12-27T09:57:17.909Z,39.03
2022-12-27T09:59:50.151Z,35.83
2022-12-27T10:02:35.960Z,43.42
2022-12-27T10:05:30.106Z,37.75
2022-12-27T10:08:32.082Z,39.85
2022-12-27T10:11:49.190Z,48.55
2022-12-27T10:14:49.917Z,37.70
2022-12-27T10:18:01.243Z,39.83
2022-12-27T10:20:58.716Z,36.38
2022-12-27T10:23:50.448Z,36.50
2022-12-27T10:26:38.742Z,35.58
2022-12-27T10:29:27.665Z,38.83
2022-12-27T10:32:15.975Z,32.33
2022-12-27T10:35:04.209Z,35.85
2022-12-27T10:37:50.271Z,43.30
2022-12-27T10:40:43.134Z,36.60
2022-12-27T10:43:36.555Z,35.13
2022-12-27T10:46:32.417Z,38.28
2022-12-27T10:49:28.364Z,39.78
2022-12-27T10:52:18.153Z,35.28
2022-12-27T10:55:04.005Z,32.50
2022-12-27T10:57:49.557Z,29.08
2022-12-27T11:00:35.435Z,30.27
2022-12-27T11:03:20.905Z,35.08
2022-12-27T11:06:23.707Z,29.38
2022-12-27T11:09:26.822Z,40.40
2022-12-27T11:12:32.995Z,32.08
2022-12-27T11:15:19.907Z,33.47
2022-12-27T11:18:35.286Z,35.10
2022-12-27T11:21:27.498Z,32.05
2022-12-27T11:24:17.401Z,39.55
2022-12-27T11:27:03.897Z,34.58
2022-12-27T11:29:51.535Z,35.00
2022-12-27T11:32:37.066Z,32.33
2022-12-27T11:35:23.750Z,30.52
2022-12-27T11:38:44.119Z,33.60
2022-12-27T11:41:33.117Z,28.67
2022-12-27T11:44:27.853Z,28.23
2022-12-27T11:47:33.544Z,31.00
2022-12-27T11:50:28.207Z,31.20
2022-12-27T11:53:32.071Z,30.15
2022-12-27T11:56:27.445Z,35.22
2022-12-27T11:59:41.215Z,38.47
2022-12-27T12:02:32.287Z,40.38
2022-12-27T12:05:41.855Z,41.92
2022-12-27T12:08:55.536Z,33.17
2022-12-27T12:12:06.149Z,35.22
2022-12-27T12:15:25.404Z,35.90
2022-12-27T12:18:25.396Z,37.90
2022-12-27T12:21:32.161Z,34.20
2022-12-27T12:24:26.918Z,32.63
2022-12-27T12:27:28.573Z,33.35
2022-12-27T12:30:43.286Z,35.22
2022-12-27T12:33:47.412Z,37.83
2022-12-27T12:36:32.922Z,36.83
2022-12-27T12:39:43.015Z,34.78
2022-12-27T12:42:53.488Z,35.58
2022-12-27T12:45:53.257Z,32.17
2022-12-27T12:48:41.640Z,41.25
2022-12-27T12:52:13.322Z,41.63
2022-12-27T12:55:38.085Z,38.45
2022-12-27T12:58:40.694Z,50.33
2022-12-27T13:01:55.075Z,43.67
2022-12-27T13:04:52.909Z,46.13
2022-12-27T13:08:05.947Z,43.95
2022-12-27T13:11:09.725Z,49.83
2022-12-27T13:14:23.643Z,52.38
2022-12-27T13:17:36.604Z,54.95
2022-12-27T13:20:46.716Z,62.67
2022-12-27T13:23:55.661Z,61.45
2022-12-27T13:27:00.228Z,55.55
2022-12-27T13:30:20.169Z,69.30
2022-12-27T13:33:30.344Z,69.65
2022-12-27T13:36:49.109Z,68.22
2022-12-27T13:39:43.903Z,67.25
2022-12-27T13:43:08.348Z,65.55
2022-12-27T13:46:25.867Z,85.10
2022-12-27T13:49:47.709Z,71.35
2022-12-27T13:53:04.478Z,73.53
2022-12-27T13:56:27.396Z,73.95
2022-12-27T13:59:45.817Z,78.90
2022-12-27T14:02:37.995Z,78.70
2022-12-27T14:05:35.968Z,82.28
2022-12-27T14:08:27.451Z,78.18
2022-12-27T14:11:46.787Z,82.68
2022-12-27T14:14:37.489Z,87.78
2022-12-27T14:17:36.841Z,83.07
2022-12-27T14:20:33.992Z,78.78
2022-12-27T14:23:42.270Z,84.13
2022-12-27T14:26:49.472Z,83.28
2022-12-27T14:30:09.239Z,87.78
2022-12-27T14:33:32.412Z,81.88
2022-12-27T14:36:27.049Z,80.78
2022-12-27T14:39:40.596Z,84.25
2022-12-27T14:42:43.780Z,82.20
2022-12-27T14:49:02.202Z,84.13
2022-12-27T14:52:12.712Z,86.57
2022-12-27T14:55:24.246Z,88.78
2022-12-27T14:58:36.456Z,89.78
2022-12-27T15:01:50.819Z,95.55
2022-12-27T15:08:02.439Z,93.18
2022-12-27T15:11:06.862Z,93.72
2022-12-27T15:14:20.904Z,93.55
2022-12-27T15:17:34.125Z,97.03
2022-12-27T15:20:31.613Z,93.50
2022-12-27T15:23:34.069Z,102.45
2022-12-27T15:26:39.669Z,101.07
2022-12-27T15:29:34.591Z,105.25
2022-12-27T15:32:38.735Z,92.22
2022-12-27T15:35:43.591Z,106.53
2022-12-27T15:38:41.035Z,106.43
2022-12-27T15:41:52.763Z,111.50
2022-12-27T15:45:03.401Z,112.35
2022-12-27T15:48:42.252Z,104.45
2022-12-27T15:52:01.551Z,107.15
2022-12-27T15:55:05.625Z,113.13
2022-12-27T15:58:17.606Z,99.30
2022-12-27T16:01:26.233Z,106.82
2022-12-27T16:04:46.504Z,105.07
2022-12-27T16:07:50.188Z,105.68
2022-12-27T16:10:42.207Z,104.38
2022-12-27T16:13:36.017Z,107.65
2022-12-27T16:16:27.161Z,101.38
2022-12-27T16:19:40.786Z,110.95
2022-12-27T16:25:30.375Z,102.63
2022-12-27T16:28:16.747Z,110.35
2022-12-27T16:31:07.606Z,107.95
2022-12-27T16:33:56.609Z,111.15
2022-12-27T16:36:47.773Z,106.57
2022-12-27T16:39:55.499Z,113.57
2022-12-27T16:42:53.226Z,104.35
2022-12-27T16:45:39.128Z,115.55
2022-12-27T16:49:00.202Z,101.20
2022-12-27T16:52:18.329Z,100.78
2022-12-27T16:55:18.750Z,108.53
2022-12-27T16:58:31.796Z,105.20
2022-12-27T17:01:26.655Z,101.90
2022-12-27T17:04:51.861Z,119.82
2022-12-27T17:08:10.274Z,108.05
2022-12-27T17:11:01.892Z,106.63
2022-12-27T17:13:50.972Z,106.50
2022-12-27T17:16:48.191Z,96.35
2022-12-27T17:19:39.782Z,110.25
2022-12-27T17:22:33.893Z,98.50
2022-12-27T17:25:31.071Z,119.72
2022-12-27T17:28:25.397Z,109.28
2022-12-27T17:31:38.950Z,101.85
2022-12-27T17:34:53.565Z,96.57
2022-12-27T17:38:20.788Z,107.50
2022-12-27T17:41:16.263Z,103.90
2022-12-27T17:44:40.149Z,108.47
2022-12-27T17:47:51.141Z,105.28
2022-12-27T17:50:42.326Z,102.57
2022-12-27T17:53:47.151Z,114.43
2022-12-27T17:57:02.332Z,112.72
2022-12-27T17:59:50.628Z,113.22
2022-12-27T18:02:39.146Z,106.72
2022-12-27T18:05:30.891Z,105.95
2022-12-27T18:08:28.739Z,108.72
2022-12-27T18:11:15.583Z,104.07
2022-12-27T18:14:01.614Z,100.70
2022-12-27T18:16:47.781Z,100.82
2022-12-27T18:19:33.678Z,100.53
2022-12-27T18:22:20.256Z,108.78
2022-12-27T18:25:24.476Z,104.30
2022-12-27T18:28:18.614Z,103.43
2022-12-27T18:31:16.819Z,103.75
2022-12-27T18:34:37.049Z,104.30
2022-12-27T18:37:25.668Z,94.45
2022-12-27T18:40:26.126Z,100.72
2022-12-27T18:43:18.055Z,103.30
2022-12-27T18:46:04.874Z,99.07
2022-12-27T18:48:50.698Z,105.35
2022-12-27T18:51:38.984Z,101.07
2022-12-27T18:54:34.520Z,122.88
2022-12-27T18:57:33.349Z,103.55
2022-12-27T19:00:18.883Z,110.40
2022-12-27T19:03:16.089Z,99.00
2022-12-27T19:06:12.916Z,102.40
2022-12-27T19:08:58.796Z,101.38
2022-12-27T19:12:00.192Z,102.28
2022-12-27T19:14:46.723Z,97.32
2022-12-27T19:17:32.932Z,115.90
2022-12-27T19:20:40.207Z,103.88
2022-12-27T19:23:39.751Z,104.40
2022-12-27T19:26:31.276Z,125.18
2022-12-27T19:29:20.455Z,187.32
2022-12-27T19:32:08.888Z,136.18
2022-12-27T19:34:58.255Z,151.13
2022-12-27T19:37:43.772Z,164.55
2022-12-27T19:40:29.431Z,144.15
2022-12-27T19:43:15.539Z,163.13
2022-12-27T19:46:01.524Z,202.68
2022-12-27T19:49:01.157Z,156.77
2022-12-27T19:51:55.950Z,177.13
2022-12-27T19:54:41.429Z,192.95
2022-12-27T19:57:27.240Z,201.88
2022-12-27T20:00:17.562Z,179.45
2022-12-27T20:03:04.519Z,208.20
2022-12-27T20:06:12.669Z,192.90
2022-12-27T20:08:56.519Z,201.93
2022-12-27T20:11:43.221Z,181.93
2022-12-27T20:14:28.709Z,217.30
2022-12-27T20:17:14.380Z,213.80
2022-12-27T20:20:00.201Z,216.35
2022-12-27T20:22:47.487Z,202.68
2022-12-27T20:25:36.520Z,213.00
2022-12-27T20:28:22.102Z,221.38
2022-12-27T20:31:13.771Z,225.18
2022-12-27T20:33:59.733Z,202.70
2022-12-27T20:36:45.230Z,214.63
2022-12-27T20:39:30.906Z,215.48
2022-12-27T20:42:16.548Z,211.40
2022-12-27T20:45:02.302Z,203.90
2022-12-27T20:47:48.260Z,214.35
2022-12-27T20:50:33.715Z,205.80
2022-12-27T20:53:19.339Z,204.75
2022-12-27T20:56:06.471Z,197.27
2022-12-27T20:58:52.400Z,216.10
2022-12-27T21:01:38.137Z,206.63
2022-12-27T21:04:26.818Z,221.60
2022-12-27T21:07:16.645Z,221.32
2022-12-27T21:10:02.575Z,238.85
2022-12-27T21:12:48.400Z,224.93
2022-12-27T21:15:40.391Z,197.18
2022-12-27T21:18:31.630Z,206.32
2022-12-27T21:21:20.753Z,239.63
2022-12-27T21:24:09.364Z,229.90
2022-12-27T21:26:56.733Z,216.52
2022-12-27T21:29:42.678Z,215.20
2022-12-27T21:32:28.375Z,216.85
2022-12-27T21:35:14.125Z,230.52
2022-12-27T21:37:59.997Z,218.75
2022-12-27T21:41:01.970Z,244.88
2022-12-27T21:43:49.151Z,217.27
2022-12-27T21:46:40.533Z,216.35
2022-12-27T21:49:26.167Z,230.23
2022-12-27T21:52:13.894Z,220.73
2022-12-27T21:54:59.580Z,217.23
2022-12-27T21:57:45.285Z,258.92
2022-12-27T22:00:30.931Z,217.80
2022-12-27T22:03:16.537Z,240.82
2022-12-27T22:06:14.182Z,229.95
2022-12-27T22:09:02.597Z,223.65
2022-12-27T22:11:49.654Z,230.35
2022-12-27T22:14:37.021Z,274.63
2022-12-27T22:17:22.772Z,217.48
2022-12-27T22:20:09.966Z,233.90
2022-12-27T22:22:55.664Z,219.60
2022-12-27T22:25:42.550Z,265.08
2022-12-27T22:28:28.006Z,219.32
2022-12-27T22:31:16.623Z,229.38
2022-12-27T22:34:04.334Z,235.75
2022-12-27T22:36:53.217Z,229.50
2022-12-27T22:39:38.765Z,225.00
2022-12-27T22:42:24.375Z,225.80
2022-12-27T22:45:10.837Z,207.60
2022-12-27T22:47:56.397Z,204.57
2022-12-27T22:50:41.995Z,219.43
2022-12-27T22:53:27.619Z,215.65
2022-12-27T22:56:24.055Z,219.52
2022-12-27T22:59:14.010Z,223.13
2022-12-27T23:01:59.560Z,216.05
2022-12-27T23:04:45.672Z,207.50
2022-12-27T23:08:04.961Z,212.07
2022-12-27T23:10:38.231Z,204.95
2022-12-27T23:13:24.888Z,212.57
2022-12-27T23:16:11.138Z,217.45
2022-12-27T23:18:56.849Z,202.65
2022-12-27T23:21:44.540Z,203.85
2022-12-27T23:24:30.189Z,209.25
2022-12-27T23:27:15.448Z,205.20
2022-12-27T23:30:01.271Z,197.00
2022-12-27T23:32:46.928Z,208.38
2022-12-27T23:35:32.819Z,207.75
2022-12-27T23:38:18.610Z,179.25
2022-12-27T23:41:06.709Z,196.65
2022-12-27T23:43:55.323Z,185.25
2022-12-27T23:46:41.737Z,146.07
2022-12-27T23:49:27.494Z,142.70
2022-12-27T23:52:13.101Z,127.07
2022-12-27T23:54:58.829Z,131.98
2022-12-27T23:57:44.509Z,134.35
